createdAt,value
2022-10-22T00:01:50.269Z,10.40
2022-10-22T00:04:19.980Z,9.93
2022-10-22T00:06:50.111Z,11.80
2022-10-22T00:09:19.946Z,12.20
2022-10-22T00:11:49.081Z,9.33
2022-10-22T00:14:21.037Z,9.40
2022-10-22T00:16:50.546Z,14.40
2022-10-22T00:19:20.358Z,10.93
2022-10-22T00:21:50.393Z,12.43
2022-10-22T00:24:19.564Z,17.80
2022-10-22T00:26:49.895Z,12.30
2022-10-22T00:29:21.535Z,12.90
2022-10-22T00:31:52.186Z,15.23
2022-10-22T00:34:23.498Z,11.20
2022-10-22T00:36:54.091Z,11.90
2022-10-22T00:39:28.441Z,9.03
2022-10-22T00:42:00.912Z,8.03
2022-10-22T00:45:12.343Z,13.80
2022-10-22T00:48:05.654Z,15.90
2022-10-22T00:50:57.917Z,12.50
2022-10-22T00:53:46.698Z,10.40
2022-10-22T00:56:18.699Z,10.97
2022-10-22T00:58:57.995Z,10.20
2022-10-22T01:01:32.994Z,14.17
2022-10-22T01:04:03.466Z,12.83
2022-10-22T01:06:34.534Z,10.03
2022-10-22T01:09:42.941Z,9.87
2022-10-22T01:12:30.250Z,13.00
2022-10-22T01:16:00.959Z,7.13
2022-10-22T01:19:13.384Z,12.83
2022-10-22T01:22:08.264Z,9.37
2022-10-22T01:26:02.711Z,7.97
2022-10-22T01:29:27.399Z,8.30
2022-10-22T01:32:26.809Z,8.53
2022-10-22T01:35:12.247Z,13.13
2022-10-22T01:37:57.027Z,9.20
2022-10-22T01:40:30.256Z,6.60
2022-10-22T01:43:12.242Z,11.80
2022-10-22T01:45:59.433Z,9.47
2022-10-22T01:49:23.102Z,8.97
2022-10-22T01:52:36.927Z,7.57
2022-10-22T01:55:57.091Z,10.50
2022-10-22T01:58:50.935Z,11.10
2022-10-22T02:02:01.754Z,11.60
2022-10-22T02:05:24.764Z,11.40
2022-10-22T02:08:24.362Z,13.00
2022-10-22T02:10:57.333Z,10.70
2022-10-22T02:13:43.740Z,10.00
2022-10-22T02:16:28.217Z,6.57
2022-10-22T02:19:06.638Z,9.47
2022-10-22T02:21:35.847Z,10.10
2022-10-22T02:24:06.202Z,5.80
2022-10-22T02:27:25.703Z,9.57
2022-10-22T02:30:11.277Z,8.07
2022-10-22T02:33:35.828Z,9.30
2022-10-22T02:36:08.929Z,8.40
2022-10-22T02:38:41.420Z,8.60
2022-10-22T02:41:12.169Z,8.13
2022-10-22T02:43:53.870Z,10.33
2022-10-22T02:46:24.004Z,8.87
2022-10-22T02:48:54.033Z,10.47
2022-10-22T02:51:23.741Z,17.77
2022-10-22T02:53:52.738Z,9.30
2022-10-22T02:56:22.392Z,13.63
2022-10-22T02:58:52.236Z,14.00
2022-10-22T03:01:22.050Z,10.60
2022-10-22T03:03:52.262Z,14.80
2022-10-22T03:06:23.026Z,15.13
2022-10-22T03:08:51.036Z,11.33
2022-10-22T03:11:18.769Z,12.70
2022-10-22T03:13:46.365Z,9.20
2022-10-22T03:16:14.515Z,11.57
2022-10-22T03:18:42.159Z,9.13
2022-10-22T03:21:34.477Z,11.87
2022-10-22T03:24:16.499Z,10.40
2022-10-22T03:26:47.279Z,11.00
2022-10-22T03:29:16.803Z,12.67
2022-10-22T03:31:44.426Z,7.37
2022-10-22T03:34:13.610Z,19.17
2022-10-22T03:36:42.797Z,8.80
2022-10-22T03:39:14.922Z,14.77
2022-10-22T03:41:44.425Z,11.43
2022-10-22T03:44:13.180Z,10.23
2022-10-22T03:46:40.699Z,12.33
2022-10-22T03:49:08.403Z,7.53
2022-10-22T03:51:36.155Z,14.30
2022-10-22T03:54:05.107Z,10.47
2022-10-22T03:56:33.661Z,12.00
2022-10-22T03:59:03.135Z,7.87
2022-10-22T04:01:31.843Z,11.37
2022-10-22T04:03:59.815Z,11.70
2022-10-22T04:06:30.056Z,11.07
2022-10-22T04:08:59.351Z,11.00
2022-10-22T04:11:27.075Z,13.20
2022-10-22T04:13:54.626Z,14.97
2022-10-22T04:16:26.194Z,17.00
2022-10-22T04:18:56.742Z,17.67
2022-10-22T04:21:25.229Z,11.67
2022-10-22T04:23:54.013Z,14.33
2022-10-22T04:26:22.030Z,15.20
2022-10-22T04:28:53.381Z,12.43
2022-10-22T04:31:25.784Z,13.30
2022-10-22T04:33:57.684Z,17.27
2022-10-22T04:36:26.895Z,11.17
2022-10-22T04:39:01.110Z,14.13
2022-10-22T04:41:35.115Z,20.63
2022-10-22T04:44:05.165Z,18.40
2022-10-22T04:46:36.045Z,21.30
2022-10-22T04:49:04.940Z,18.70
2022-10-22T04:51:33.396Z,17.13
2022-10-22T04:54:01.085Z,15.33
2022-10-22T04:56:32.267Z,15.43
2022-10-22T04:59:06.436Z,16.93
2022-10-22T05:01:42.879Z,15.57
2022-10-22T05:04:19.757Z,15.63
2022-10-22T05:06:47.853Z,14.17
2022-10-22T05:09:20.971Z,13.60
2022-10-22T05:11:53.472Z,17.83
2022-10-22T05:14:26.273Z,13.70
2022-10-22T05:16:54.578Z,17.50
2022-10-22T05:19:31.829Z,16.17
2022-10-22T05:22:04.298Z,21.10
2022-10-22T05:24:37.264Z,17.60
2022-10-22T05:27:05.096Z,18.93
2022-10-22T05:29:33.449Z,19.57
2022-10-22T05:32:01.071Z,16.73
2022-10-22T05:34:28.813Z,16.87
2022-10-22T05:36:56.395Z,31.00
2022-10-22T05:39:24.215Z,23.80
2022-10-22T05:41:51.767Z,15.67
2022-10-22T05:44:19.723Z,20.17
2022-10-22T05:46:47.339Z,22.23
2022-10-22T05:49:16.377Z,16.10
2022-10-22T05:51:44.169Z,16.03
2022-10-22T05:54:24.697Z,17.43
2022-10-22T05:56:52.306Z,19.70
2022-10-22T05:59:19.882Z,16.77
2022-10-22T06:01:47.592Z,18.40
2022-10-22T06:04:16.229Z,15.90
2022-10-22T06:06:53.621Z,17.43
2022-10-22T06:09:30.992Z,17.70
2022-10-22T06:11:59.855Z,19.30
2022-10-22T06:14:28.729Z,19.17
2022-10-22T06:17:00.200Z,18.87
2022-10-22T06:19:29.866Z,18.53
2022-10-22T06:21:57.592Z,14.73
2022-10-22T06:24:25.255Z,20.80
2022-10-22T06:26:53.564Z,13.93
2022-10-22T06:29:21.922Z,16.77
2022-10-22T06:31:50.089Z,15.80
2022-10-22T06:34:21.538Z,12.73
2022-10-22T06:36:49.361Z,19.27
2022-10-22T06:39:18.553Z,17.03
2022-10-22T06:41:46.993Z,17.13
2022-10-22T06:44:20.914Z,16.53
2022-10-22T06:46:53.132Z,19.00
2022-10-22T06:49:21.999Z,15.87
2022-10-22T06:51:56.089Z,17.87
2022-10-22T06:54:24.013Z,14.60
2022-10-22T06:56:51.603Z,21.07
2022-10-22T06:59:19.274Z,15.67
2022-10-22T07:01:47.030Z,19.07
2022-10-22T07:04:14.914Z,16.80
2022-10-22T07:06:42.593Z,22.13
2022-10-22T07:09:10.445Z,18.60
2022-10-22T07:11:46.670Z,22.00
2022-10-22T07:14:15.505Z,13.90
2022-10-22T07:16:43.381Z,15.93
2022-10-22T07:19:11.479Z,16.90
2022-10-22T07:21:39.985Z,16.13
2022-10-22T07:24:08.525Z,16.40
2022-10-22T07:26:37.016Z,13.07
2022-10-22T07:29:06.521Z,18.70
2022-10-22T07:31:34.123Z,15.57
2022-10-22T07:34:01.915Z,10.47
2022-10-22T07:36:29.582Z,13.30
2022-10-22T07:39:02.247Z,19.93
2022-10-22T07:41:31.717Z,14.13
2022-10-22T07:44:00.117Z,11.97
2022-10-22T07:46:28.284Z,12.60
2022-10-22T07:48:56.240Z,10.57
2022-10-22T07:51:24.023Z,16.10
2022-10-22T07:53:52.249Z,7.67
2022-10-22T07:56:19.801Z,12.10
2022-10-22T07:58:47.426Z,7.50
2022-10-22T08:01:15.177Z,9.27
2022-10-22T08:03:42.919Z,15.67
2022-10-22T08:06:14.962Z,10.50
2022-10-22T08:08:45.752Z,10.00
2022-10-22T08:11:15.202Z,7.90
2022-10-22T08:13:45.417Z,6.83
2022-10-22T08:16:14.888Z,5.83
2022-10-22T08:18:42.966Z,8.27
2022-10-22T08:21:13.432Z,9.90
2022-10-22T08:23:41.923Z,9.77
2022-10-22T08:26:11.805Z,25.03
2022-10-22T08:28:39.727Z,9.03
2022-10-22T08:31:09.046Z,8.90
2022-10-22T08:33:38.889Z,16.17
2022-10-22T08:36:08.391Z,8.00
2022-10-22T08:38:36.332Z,9.20
2022-10-22T08:41:25.065Z,10.20
2022-10-22T08:45:17.170Z,7.03
2022-10-22T08:48:48.523Z,9.23
2022-10-22T08:51:34.587Z,8.37
2022-10-22T08:54:30.904Z,7.23
2022-10-22T08:57:20.474Z,12.50
2022-10-22T09:00:05.058Z,7.10
2022-10-22T09:03:09.792Z,13.90
2022-10-22T09:06:24.907Z,6.73
2022-10-22T09:08:57.327Z,8.87
2022-10-22T09:11:34.647Z,9.37
2022-10-22T09:14:04.994Z,12.10
2022-10-22T09:17:41.641Z,6.30
2022-10-22T09:21:07.419Z,8.23
2022-10-22T09:24:23.813Z,5.47
2022-10-22T09:26:52.095Z,14.80
2022-10-22T09:29:32.883Z,9.73
2022-10-22T09:32:00.959Z,10.17
2022-10-22T09:34:31.126Z,8.90
2022-10-22T09:37:10.783Z,11.57
2022-10-22T09:39:51.814Z,8.17
2022-10-22T09:42:23.174Z,7.20
2022-10-22T09:45:01.038Z,5.90
2022-10-22T09:47:57.077Z,5.80
2022-10-22T09:50:48.292Z,6.40
2022-10-22T09:53:30.034Z,6.03
2022-10-22T09:56:25.032Z,6.50
2022-10-22T09:58:53.196Z,11.40
2022-10-22T10:01:36.229Z,6.30
2022-10-22T10:04:13.216Z,8.17
2022-10-22T10:06:45.029Z,6.03
2022-10-22T10:09:28.169Z,6.47
2022-10-22T10:12:56.665Z,5.13
2022-10-22T10:16:04.359Z,10.30
2022-10-22T10:19:25.843Z,6.10
2022-10-22T10:22:34.602Z,5.93
2022-10-22T10:25:48.032Z,8.60
2022-10-22T10:29:10.540Z,4.67
2022-10-22T10:32:31.977Z,8.10
2022-10-22T10:36:06.894Z,7.33
2022-10-22T10:39:10.298Z,5.43
2022-10-22T10:41:58.544Z,6.60
2022-10-22T10:45:07.344Z,8.13
2022-10-22T10:48:16.629Z,8.20
2022-10-22T10:52:06.763Z,6.80
2022-10-22T10:55:22.617Z,4.50
2022-10-22T10:58:43.031Z,7.83
2022-10-22T11:02:00.959Z,7.63
2022-10-22T11:05:21.280Z,7.10
2022-10-22T11:08:45.418Z,6.50
2022-10-22T11:11:32.568Z,5.93
2022-10-22T11:14:24.230Z,4.30
2022-10-22T11:17:17.239Z,5.37
2022-10-22T11:20:28.031Z,9.60
2022-10-22T11:23:24.931Z,4.10
2022-10-22T11:25:52.992Z,6.10
2022-10-22T11:28:51.216Z,6.27
2022-10-22T11:31:26.026Z,5.60
2022-10-22T11:34:33.244Z,8.13
2022-10-22T11:37:06.163Z,8.30
2022-10-22T11:39:57.797Z,7.93
2022-10-22T11:42:58.686Z,6.40
2022-10-22T11:45:37.506Z,6.07
2022-10-22T11:48:11.175Z,7.83
2022-10-22T11:50:44.972Z,5.90
2022-10-22T11:53:15.620Z,6.20
2022-10-22T11:55:57.684Z,11.27
2022-10-22T11:58:42.464Z,8.03
2022-10-22T12:01:10.170Z,4.20
2022-10-22T12:03:54.095Z,7.57
2022-10-22T12:06:28.791Z,3.33
2022-10-22T12:09:07.379Z,8.00
2022-10-22T12:11:47.893Z,8.67
2022-10-22T12:14:52.483Z,6.00
2022-10-22T12:17:23.546Z,5.30
2022-10-22T12:20:13.920Z,7.47
2022-10-22T12:22:42.484Z,5.73
2022-10-22T12:25:24.971Z,5.30
2022-10-22T12:27:58.885Z,7.63
2022-10-22T12:30:37.360Z,3.40
2022-10-22T12:33:20.189Z,6.03
2022-10-22T12:35:53.044Z,7.83
2022-10-22T12:38:25.807Z,5.63
2022-10-22T12:40:57.775Z,4.77
2022-10-22T12:43:32.551Z,8.10
2022-10-22T12:46:01.161Z,11.43
2022-10-22T12:48:41.861Z,5.73
2022-10-22T12:51:19.964Z,4.30
2022-10-22T12:53:57.139Z,7.23
2022-10-22T12:56:36.136Z,7.57
2022-10-22T12:59:38.804Z,8.30
2022-10-22T13:02:29.198Z,7.10
2022-10-22T13:05:25.039Z,4.50
2022-10-22T13:08:08.765Z,5.97
2022-10-22T13:10:49.078Z,14.00
2022-10-22T13:13:37.695Z,8.40
2022-10-22T13:16:27.875Z,7.97
2022-10-22T13:18:55.895Z,6.33
2022-10-22T13:21:38.835Z,6.10
2022-10-22T13:24:32.634Z,5.27
2022-10-22T13:27:00.368Z,3.23
2022-10-22T13:29:28.201Z,6.43
2022-10-22T13:31:55.892Z,3.20
2022-10-22T13:34:26.591Z,7.13
2022-10-22T13:36:54.616Z,4.57
2022-10-22T13:39:25.291Z,6.97
2022-10-22T13:41:53.075Z,8.23
2022-10-22T13:44:20.704Z,6.10
2022-10-22T13:46:49.171Z,11.90
2022-10-22T13:49:23.548Z,5.97
2022-10-22T13:51:51.739Z,8.73
2022-10-22T13:54:25.197Z,4.87
2022-10-22T13:56:54.062Z,5.60
2022-10-22T13:59:26.922Z,3.87
2022-10-22T14:01:57.096Z,4.83
2022-10-22T14:04:28.973Z,4.00
2022-10-22T14:06:58.855Z,4.53
2022-10-22T14:09:29.028Z,6.33
2022-10-22T14:11:56.693Z,7.03
2022-10-22T14:14:24.395Z,6.67
2022-10-22T14:17:02.258Z,6.10
2022-10-22T14:19:32.323Z,4.47
2022-10-22T14:22:00.115Z,11.20
2022-10-22T14:24:27.759Z,6.83
2022-10-22T14:26:55.399Z,9.53
2022-10-22T14:29:23.977Z,5.27
2022-10-22T14:31:52.185Z,6.53
2022-10-22T14:34:19.756Z,4.93
2022-10-22T14:36:47.583Z,5.03
2022-10-22T14:39:15.205Z,4.53
2022-10-22T14:41:43.921Z,5.77
2022-10-22T14:44:14.518Z,6.27
2022-10-22T14:46:44.424Z,5.20
2022-10-22T14:49:12.980Z,3.90
2022-10-22T14:51:42.113Z,8.57
2022-10-22T14:54:09.642Z,4.23
2022-10-22T14:59:10.535Z,4.70
2022-10-22T15:01:39.489Z,4.53
2022-10-22T15:04:07.143Z,4.20
2022-10-22T15:06:35.653Z,5.70
2022-10-22T15:09:04.315Z,8.17
2022-10-22T15:11:32.093Z,7.43
2022-10-22T15:14:00.041Z,7.03
2022-10-22T15:16:27.811Z,6.33
2022-10-22T15:18:55.819Z,5.27
2022-10-22T15:21:24.191Z,7.33
2022-10-22T15:23:51.796Z,4.77
2022-10-22T15:26:19.560Z,13.73
2022-10-22T15:28:47.290Z,5.70
2022-10-22T15:31:16.116Z,8.37
2022-10-22T15:33:44.654Z,4.00
2022-10-22T15:36:17.973Z,7.53
2022-10-22T15:38:46.055Z,4.83
2022-10-22T15:41:14.036Z,6.40
2022-10-22T15:43:42.122Z,5.03
2022-10-22T15:46:20.491Z,5.27
2022-10-22T15:48:48.160Z,6.17
2022-10-22T15:51:20.366Z,4.50
2022-10-22T15:53:59.084Z,9.70
2022-10-22T15:56:31.313Z,7.03
2022-10-22T15:59:04.251Z,4.30
2022-10-22T16:01:35.396Z,5.93
2022-10-22T16:04:04.444Z,8.50
2022-10-22T16:06:47.612Z,4.00
2022-10-22T16:09:27.142Z,3.70
2022-10-22T16:11:56.437Z,3.47
2022-10-22T16:14:25.160Z,5.80
2022-10-22T16:16:56.343Z,4.90
2022-10-22T16:19:26.169Z,5.90
2022-10-22T16:21:56.710Z,7.07
2022-10-22T16:24:24.504Z,4.73
2022-10-22T16:26:53.343Z,4.83
2022-10-22T16:29:21.698Z,5.10
2022-10-22T16:31:49.250Z,4.13
2022-10-22T16:34:16.924Z,4.33
2022-10-22T16:36:45.066Z,7.77
2022-10-22T16:39:12.704Z,4.57
2022-10-22T16:41:40.384Z,4.63
2022-10-22T16:44:10.150Z,5.83
2022-10-22T16:46:38.733Z,8.30
2022-10-22T16:49:08.144Z,6.97
2022-10-22T16:51:36.566Z,15.03
2022-10-22T16:54:11.271Z,16.10
2022-10-22T16:56:40.323Z,28.13
2022-10-22T16:59:08.569Z,29.47
2022-10-22T17:01:40.627Z,27.87
2022-10-22T17:04:10.237Z,17.97
2022-10-22T17:06:37.954Z,17.40
2022-10-22T17:09:06.202Z,23.27
2022-10-22T17:11:36.454Z,17.83
2022-10-22T17:14:07.114Z,18.70
2022-10-22T17:16:34.764Z,19.17
2022-10-22T17:19:05.450Z,24.43
2022-10-22T17:21:34.120Z,23.50
2022-10-22T17:24:01.937Z,23.10
2022-10-22T17:26:30.533Z,21.50
2022-10-22T17:28:59.242Z,20.30
2022-10-22T17:31:37.280Z,21.90
2022-10-22T17:34:14.756Z,23.13
2022-10-22T17:36:44.015Z,20.37
2022-10-22T17:39:18.738Z,19.90
2022-10-22T17:41:46.503Z,18.97
2022-10-22T17:44:16.341Z,20.53
2022-10-22T17:46:49.729Z,17.53
2022-10-22T17:49:21.013Z,18.97
2022-10-22T17:51:48.787Z,13.90
2022-10-22T17:54:16.687Z,16.60
2022-10-22T17:56:44.369Z,17.17
2022-10-22T17:59:17.146Z,14.57
2022-10-22T18:01:47.903Z,16.67
2022-10-22T18:04:20.051Z,19.63
2022-10-22T18:06:49.172Z,17.87
2022-10-22T18:09:19.540Z,17.90
2022-10-22T18:11:54.727Z,17.30
2022-10-22T18:14:24.433Z,17.00
2022-10-22T18:16:52.856Z,21.53
2022-10-22T18:19:24.595Z,16.57
2022-10-22T18:21:52.326Z,14.20
2022-10-22T18:24:20.246Z,15.23
2022-10-22T18:26:48.300Z,13.53
2022-10-22T18:29:20.802Z,14.10
2022-10-22T18:31:49.339Z,21.97
2022-10-22T18:34:20.227Z,16.60
2022-10-22T18:36:50.807Z,13.40
2022-10-22T18:39:19.598Z,19.13
2022-10-22T18:41:47.497Z,19.40
2022-10-22T18:44:16.951Z,15.30
2022-10-22T18:46:44.779Z,15.07
2022-10-22T18:49:19.833Z,13.57
2022-10-22T18:51:52.677Z,14.43
2022-10-22T18:54:23.800Z,24.27
2022-10-22T18:57:01.974Z,14.53
2022-10-22T18:59:31.135Z,15.03
2022-10-22T19:01:59.818Z,18.97
2022-10-22T19:04:36.738Z,16.47
2022-10-22T19:09:35.309Z,18.33
2022-10-22T19:12:03.398Z,18.10
2022-10-22T19:14:31.871Z,21.23
2022-10-22T19:16:59.480Z,20.93
2022-10-22T19:19:27.734Z,17.43
2022-10-22T19:21:56.672Z,22.80
2022-10-22T19:24:24.295Z,22.53
2022-10-22T19:26:52.016Z,20.50
2022-10-22T19:29:22.350Z,30.93
2022-10-22T19:31:51.206Z,21.17
2022-10-22T19:34:20.810Z,20.40
2022-10-22T19:36:51.944Z,26.73
2022-10-22T19:39:20.619Z,23.03
2022-10-22T19:41:48.611Z,23.43
2022-10-22T19:44:16.561Z,20.50
2022-10-22T19:46:44.216Z,20.83
2022-10-22T19:49:11.990Z,22.50
2022-10-22T19:51:40.273Z,20.63
2022-10-22T19:54:18.581Z,20.70
2022-10-22T19:56:48.698Z,26.50
2022-10-22T19:59:20.495Z,24.60
2022-10-22T20:01:49.013Z,23.73
2022-10-22T20:04:18.610Z,27.87
2022-10-22T20:06:47.127Z,22.20
2022-10-22T20:09:14.927Z,33.67
2022-10-22T20:11:43.504Z,28.17
2022-10-22T20:14:14.291Z,21.20
2022-10-22T20:16:44.613Z,25.70
2022-10-22T20:19:18.451Z,27.00
2022-10-22T20:21:49.234Z,24.63
2022-10-22T20:24:17.786Z,20.33
2022-10-22T20:26:47.708Z,28.20
2022-10-22T20:29:19.121Z,23.73
2022-10-22T20:31:47.904Z,27.10
2022-10-22T20:34:15.797Z,21.83
2022-10-22T20:36:43.535Z,20.03
2022-10-22T20:39:16.632Z,21.23
2022-10-22T20:41:44.239Z,17.63
2022-10-22T20:44:18.504Z,20.50
2022-10-22T20:46:46.295Z,15.10
2022-10-22T20:49:20.914Z,19.67
2022-10-22T20:51:48.582Z,19.37
2022-10-22T20:54:17.320Z,18.00
2022-10-22T20:56:47.606Z,14.70
2022-10-22T20:59:16.615Z,16.10
2022-10-22T21:01:54.974Z,15.50
2022-10-22T21:04:22.938Z,18.70
2022-10-22T21:06:52.285Z,17.80
2022-10-22T21:09:21.301Z,22.90
2022-10-22T21:11:49.013Z,18.37
2022-10-22T21:14:22.165Z,25.13
2022-10-22T21:16:52.922Z,19.67
2022-10-22T21:19:23.564Z,16.07
2022-10-22T21:21:51.331Z,23.70
2022-10-22T21:24:19.572Z,19.70
2022-10-22T21:26:47.764Z,13.50
2022-10-22T21:29:15.983Z,18.93
2022-10-22T21:31:43.622Z,18.50
2022-10-22T21:34:17.343Z,18.27
2022-10-22T21:36:45.053Z,19.77
2022-10-22T21:39:13.880Z,19.70
2022-10-22T21:41:41.795Z,18.57
2022-10-22T21:44:09.428Z,21.53
2022-10-22T21:46:37.495Z,18.37
2022-10-22T21:49:05.549Z,20.07
2022-10-22T21:51:38.202Z,17.53
2022-10-22T21:54:06.453Z,16.17
2022-10-22T21:56:36.641Z,17.90
2022-10-22T21:59:07.709Z,17.80
2022-10-22T22:01:36.229Z,19.60
2022-10-22T22:04:04.237Z,14.73
2022-10-22T22:06:33.660Z,18.93
2022-10-22T22:09:04.376Z,20.87
2022-10-22T22:11:33.144Z,18.87
2022-10-22T22:14:00.774Z,16.83
2022-10-22T22:16:34.141Z,17.60
2022-10-22T22:19:09.850Z,16.50
2022-10-22T22:21:41.080Z,23.40
2022-10-22T22:24:13.073Z,18.07
2022-10-22T22:26:41.065Z,16.77
2022-10-22T22:29:08.569Z,18.93
2022-10-22T22:31:37.581Z,14.27
2022-10-22T22:34:13.900Z,13.93
2022-10-22T22:36:49.841Z,15.97
2022-10-22T22:39:24.256Z,14.73
2022-10-22T22:41:52.661Z,18.77
2022-10-22T22:44:20.348Z,15.10
2022-10-22T22:46:48.097Z,14.90
2022-10-22T22:49:15.865Z,15.93
2022-10-22T22:51:44.388Z,16.53
2022-10-22T22:54:12.474Z,12.70
2022-10-22T22:56:40.178Z,11.83
2022-10-22T22:59:08.474Z,14.67
2022-10-22T23:01:40.091Z,17.60
2022-10-22T23:04:19.220Z,17.93
2022-10-22T23:06:47.768Z,15.27
2022-10-22T23:11:51.553Z,14.10
2022-10-22T23:14:20.578Z,16.23
2022-10-22T23:16:52.990Z,15.43
2022-10-22T23:19:24.143Z,15.13
2022-10-22T23:21:56.156Z,15.40
2022-10-22T23:24:29.682Z,13.77
2022-10-22T23:27:04.017Z,16.80
2022-10-22T23:29:36.503Z,14.67
2022-10-22T23:32:14.378Z,17.03
2022-10-22T23:34:42.089Z,19.77
2022-10-22T23:37:12.641Z,13.67
2022-10-22T23:39:40.315Z,18.00
2022-10-22T23:42:07.966Z,18.70
2022-10-22T23:44:35.521Z,15.87
2022-10-22T23:47:03.273Z,18.47
2022-10-22T23:49:30.955Z,21.17
2022-10-22T23:51:58.515Z,18.23
2022-10-22T23:54:26.138Z,16.80
2022-10-22T23:56:53.715Z,15.30
2022-10-22T23:59:21.356Z,20.43
